sensor_id;sensor_type;location;lat;lon;timestamp;P1;durP1;ratioP1;P2;durP2;ratioP2
5787;SDS011;2920;48.158;12.254;2022-08-01T00:01:30;3.60;;;2.67;;
5787;SDS011;2920;48.158;12.254;2022-08-01T00:03:55;3.90;;;3.13;;
5787;SDS011;2920;48.158;12.254;2022-08-01T00:06:21;3.75;;;3.13;;
5787;SDS011;2920;48.158;12.254;2022-08-01T00:08:46;4.22;;;3.47;;
5787;SDS011;2920;48.158;12.254;2022-08-01T00:11:11;4.45;;;3.47;;
5787;SDS011;2920;48.158;12.254;2022-08-01T00:13:37;4.00;;;3.15;;
5787;SDS011;2920;48.158;12.254;2022-08-01T00:16:02;4.63;;;3.53;;
5787;SDS011;2920;48.158;12.254;2022-08-01T00:18:28;3.95;;;3.20;;
5787;SDS011;2920;48.158;12.254;2022-08-01T00:20:53;7.55;;;3.20;;
5787;SDS011;2920;48.158;12.254;2022-08-01T00:23:18;3.45;;;2.63;;
5787;SDS011;2920;48.158;12.254;2022-08-01T00:25:44;4.20;;;2.90;;
5787;SDS011;2920;48.158;12.254;2022-08-01T00:28:09;3.67;;;2.95;;
5787;SDS011;2920;48.158;12.254;2022-08-01T00:30:35;5.55;;;3.80;;
5787;SDS011;2920;48.158;12.254;2022-08-01T00:33:00;5.53;;;3.38;;
5787;SDS011;2920;48.158;12.254;2022-08-01T00:35:26;3.97;;;3.40;;
5787;SDS011;2920;48.158;12.254;2022-08-01T00:37:51;4.00;;;3.20;;
5787;SDS011;2920;48.158;12.254;2022-08-01T00:40:17;4.90;;;3.45;;
5787;SDS011;2920;48.158;12.254;2022-08-01T00:42:42;4.25;;;3.25;;
5787;SDS011;2920;48.158;12.254;2022-08-01T00:45:08;4.05;;;3.28;;
5787;SDS011;2920;48.158;12.254;2022-08-01T00:47:34;3.60;;;3.22;;
5787;SDS011;2920;48.158;12.254;2022-08-01T00:49:59;4.00;;;2.90;;
5787;SDS011;2920;48.158;12.254;2022-08-01T00:52:24;3.08;;;2.78;;
5787;SDS011;2920;48.158;12.254;2022-08-01T00:54:49;3.58;;;3.13;;
5787;SDS011;2920;48.158;12.254;2022-08-01T00:57:15;4.53;;;2.95;;
5787;SDS011;2920;48.158;12.254;2022-08-01T00:59:40;3.00;;;2.70;;
5787;SDS011;2920;48.158;12.254;2022-08-01T01:02:06;4.35;;;2.92;;
5787;SDS011;2920;48.158;12.254;2022-08-01T01:04:31;5.00;;;3.30;;
5787;SDS011;2920;48.158;12.254;2022-08-01T01:07:03;4.80;;;2.97;;
5787;SDS011;2920;48.158;12.254;2022-08-01T01:12:06;5.33;;;3.57;;
5787;SDS011;2920;48.158;12.254;2022-08-01T01:14:38;3.40;;;3.08;;
5787;SDS011;2920;48.158;12.254;2022-08-01T01:17:11;3.03;;;2.72;;
5787;SDS011;2920;48.158;12.254;2022-08-01T01:19:41;3.33;;;2.70;;
5787;SDS011;2920;48.158;12.254;2022-08-01T01:22:19;7.20;;;3.25;;
5787;SDS011;2920;48.158;12.254;2022-08-01T01:30:05;3.53;;;2.90;;
5787;SDS011;2920;48.158;12.254;2022-08-01T01:32:33;3.72;;;3.17;;
5787;SDS011;2920;48.158;12.254;2022-08-01T01:37:54;7.38;;;3.22;;
5787;SDS011;2920;48.158;12.254;2022-08-01T01:40:22;3.95;;;3.17;;
5787;SDS011;2920;48.158;12.254;2022-08-01T01:42:49;4.20;;;2.90;;
5787;SDS011;2920;48.158;12.254;2022-08-01T01:45:15;4.05;;;2.85;;
5787;SDS011;2920;48.158;12.254;2022-08-01T01:47:41;3.78;;;2.83;;
5787;SDS011;2920;48.158;12.254;2022-08-01T01:50:07;3.58;;;3.05;;
5787;SDS011;2920;48.158;12.254;2022-08-01T01:52:33;3.22;;;2.78;;
5787;SDS011;2920;48.158;12.254;2022-08-01T01:54:59;4.05;;;2.60;;
5787;SDS011;2920;48.158;12.254;2022-08-01T01:57:27;4.10;;;2.60;;
5787;SDS011;2920;48.158;12.254;2022-08-01T01:59:53;5.68;;;3.33;;
5787;SDS011;2920;48.158;12.254;2022-08-01T02:02:20;4.65;;;3.13;;
5787;SDS011;2920;48.158;12.254;2022-08-01T02:04:47;3.40;;;2.85;;
5787;SDS011;2920;48.158;12.254;2022-08-01T02:07:14;3.40;;;2.72;;
5787;SDS011;2920;48.158;12.254;2022-08-01T02:09:42;2.70;;;2.28;;
5787;SDS011;2920;48.158;12.254;2022-08-01T02:12:12;3.10;;;2.80;;
5787;SDS011;2920;48.158;12.254;2022-08-01T02:14:38;3.35;;;2.42;;
5787;SDS011;2920;48.158;12.254;2022-08-01T02:17:06;3.93;;;2.73;;
5787;SDS011;2920;48.158;12.254;2022-08-01T02:19:34;3.30;;;3.00;;
5787;SDS011;2920;48.158;12.254;2022-08-01T02:22:08;3.55;;;2.78;;
5787;SDS011;2920;48.158;12.254;2022-08-01T02:27:14;3.20;;;2.90;;
5787;SDS011;2920;48.158;12.254;2022-08-01T02:29:47;3.65;;;2.80;;
5787;SDS011;2920;48.158;12.254;2022-08-01T02:32:18;3.95;;;3.17;;
5787;SDS011;2920;48.158;12.254;2022-08-01T02:34:47;5.95;;;2.45;;
5787;SDS011;2920;48.158;12.254;2022-08-01T02:37:15;3.35;;;2.90;;
5787;SDS011;2920;48.158;12.254;2022-08-01T02:39:41;3.25;;;2.95;;
5787;SDS011;2920;48.158;12.254;2022-08-01T02:42:07;3.78;;;2.80;;
5787;SDS011;2920;48.158;12.254;2022-08-01T02:44:35;3.20;;;2.90;;
5787;SDS011;2920;48.158;12.254;2022-08-01T02:47:03;3.20;;;2.80;;
5787;SDS011;2920;48.158;12.254;2022-08-01T02:49:31;3.70;;;2.80;;
5787;SDS011;2920;48.158;12.254;2022-08-01T02:51:58;3.30;;;2.97;;
5787;SDS011;2920;48.158;12.254;2022-08-01T02:54:24;3.03;;;2.72;;
5787;SDS011;2920;48.158;12.254;2022-08-01T02:56:51;2.80;;;2.60;;
5787;SDS011;2920;48.158;12.254;2022-08-01T02:59:18;3.15;;;2.80;;
5787;SDS011;2920;48.158;12.254;2022-08-01T03:01:44;4.03;;;2.83;;
5787;SDS011;2920;48.158;12.254;2022-08-01T03:04:10;3.00;;;2.70;;
5787;SDS011;2920;48.158;12.254;2022-08-01T03:06:36;3.53;;;3.05;;
5787;SDS011;2920;48.158;12.254;2022-08-01T03:09:03;4.95;;;3.30;;
5787;SDS011;2920;48.158;12.254;2022-08-01T03:11:29;3.75;;;3.20;;
5787;SDS011;2920;48.158;12.254;2022-08-01T03:13:55;5.05;;;3.20;;
5787;SDS011;2920;48.158;12.254;2022-08-01T03:16:21;5.32;;;3.58;;
5787;SDS011;2920;48.158;12.254;2022-08-01T03:18:49;4.05;;;3.15;;
5787;SDS011;2920;48.158;12.254;2022-08-01T03:21:17;3.13;;;2.83;;
5787;SDS011;2920;48.158;12.254;2022-08-01T03:23:44;5.97;;;3.90;;
5787;SDS011;2920;48.158;12.254;2022-08-01T03:26:10;3.95;;;3.35;;
5787;SDS011;2920;48.158;12.254;2022-08-01T03:28:36;4.18;;;3.20;;
5787;SDS011;2920;48.158;12.254;2022-08-01T03:31:02;3.67;;;3.20;;
5787;SDS011;2920;48.158;12.254;2022-08-01T03:33:28;6.20;;;3.17;;
5787;SDS011;2920;48.158;12.254;2022-08-01T03:35:54;5.03;;;3.03;;
5787;SDS011;2920;48.158;12.254;2022-08-01T03:38:22;5.47;;;3.65;;
5787;SDS011;2920;48.158;12.254;2022-08-01T03:40:58;5.30;;;3.47;;
5787;SDS011;2920;48.158;12.254;2022-08-01T03:43:41;3.45;;;3.15;;
5787;SDS011;2920;48.158;12.254;2022-08-01T03:46:11;3.78;;;3.05;;
5787;SDS011;2920;48.158;12.254;2022-08-01T03:48:43;4.50;;;3.08;;
5787;SDS011;2920;48.158;12.254;2022-08-01T03:51:13;3.47;;;2.95;;
5787;SDS011;2920;48.158;12.254;2022-08-01T03:53:38;3.00;;;2.60;;
5787;SDS011;2920;48.158;12.254;2022-08-01T03:56:06;4.07;;;2.85;;
5787;SDS011;2920;48.158;12.254;2022-08-01T03:58:33;3.22;;;2.92;;
5787;SDS011;2920;48.158;12.254;2022-08-01T04:01:00;3.25;;;2.88;;
5787;SDS011;2920;48.158;12.254;2022-08-01T04:03:25;4.03;;;3.17;;
5787;SDS011;2920;48.158;12.254;2022-08-01T04:05:51;5.45;;;3.13;;
5787;SDS011;2920;48.158;12.254;2022-08-01T04:08:16;5.75;;;2.97;;
5787;SDS011;2920;48.158;12.254;2022-08-01T04:10:42;3.00;;;2.70;;
5787;SDS011;2920;48.158;12.254;2022-08-01T04:13:07;6.20;;;3.10;;
5787;SDS011;2920;48.158;12.254;2022-08-01T04:15:32;4.43;;;3.13;;
5787;SDS011;2920;48.158;12.254;2022-08-01T04:17:58;4.38;;;3.00;;
5787;SDS011;2920;48.158;12.254;2022-08-01T04:20:23;3.17;;;2.78;;
5787;SDS011;2920;48.158;12.254;2022-08-01T04:22:49;3.90;;;3.03;;
5787;SDS011;2920;48.158;12.254;2022-08-01T04:25:15;3.42;;;2.70;;
5787;SDS011;2920;48.158;12.254;2022-08-01T04:27:45;3.88;;;2.97;;
5787;SDS011;2920;48.158;12.254;2022-08-01T04:30:12;3.08;;;2.53;;
5787;SDS011;2920;48.158;12.254;2022-08-01T04:32:39;3.38;;;2.90;;
5787;SDS011;2920;48.158;12.254;2022-08-01T04:35:06;4.80;;;2.78;;
5787;SDS011;2920;48.158;12.254;2022-08-01T04:37:33;3.25;;;2.95;;
5787;SDS011;2920;48.158;12.254;2022-08-01T04:40:02;3.50;;;2.78;;
5787;SDS011;2920;48.158;12.254;2022-08-01T04:42:29;3.72;;;2.95;;
5787;SDS011;2920;48.158;12.254;2022-08-01T04:44:55;6.63;;;3.10;;
5787;SDS011;2920;48.158;12.254;2022-08-01T04:47:21;3.67;;;2.58;;
5787;SDS011;2920;48.158;12.254;2022-08-01T04:49:48;3.35;;;2.63;;
5787;SDS011;2920;48.158;12.254;2022-08-01T04:52:13;4.10;;;2.72;;
5787;SDS011;2920;48.158;12.254;2022-08-01T04:54:39;5.45;;;3.15;;
5787;SDS011;2920;48.158;12.254;2022-08-01T04:57:05;5.22;;;2.97;;
5787;SDS011;2920;48.158;12.254;2022-08-01T04:59:31;4.97;;;3.03;;
5787;SDS011;2920;48.158;12.254;2022-08-01T05:04:36;4.57;;;2.45;;
5787;SDS011;2920;48.158;12.254;2022-08-01T05:07:02;3.25;;;2.58;;
5787;SDS011;2920;48.158;12.254;2022-08-01T05:09:28;4.78;;;2.45;;
5787;SDS011;2920;48.158;12.254;2022-08-01T05:11:53;3.05;;;2.75;;
5787;SDS011;2920;48.158;12.254;2022-08-01T05:14:18;2.78;;;2.40;;
5787;SDS011;2920;48.158;12.254;2022-08-01T05:16:44;3.13;;;2.38;;
5787;SDS011;2920;48.158;12.254;2022-08-01T05:19:10;3.22;;;2.55;;
5787;SDS011;2920;48.158;12.254;2022-08-01T05:21:36;3.25;;;2.53;;
5787;SDS011;2920;48.158;12.254;2022-08-01T05:24:02;6.35;;;2.40;;
5787;SDS011;2920;48.158;12.254;2022-08-01T05:26:28;4.22;;;2.50;;
5787;SDS011;2920;48.158;12.254;2022-08-01T05:28:53;3.35;;;2.65;;
5787;SDS011;2920;48.158;12.254;2022-08-01T05:31:19;3.95;;;2.50;;
5787;SDS011;2920;48.158;12.254;2022-08-01T05:33:44;2.95;;;2.33;;
5787;SDS011;2920;48.158;12.254;2022-08-01T05:36:09;2.88;;;2.25;;
5787;SDS011;2920;48.158;12.254;2022-08-01T05:38:35;3.20;;;2.70;;
5787;SDS011;2920;48.158;12.254;2022-08-01T05:41:00;3.22;;;2.20;;
5787;SDS011;2920;48.158;12.254;2022-08-01T05:43:27;4.70;;;2.45;;
5787;SDS011;2920;48.158;12.254;2022-08-01T05:45:52;7.53;;;2.65;;
5787;SDS011;2920;48.158;12.254;2022-08-01T05:48:17;4.00;;;2.55;;
5787;SDS011;2920;48.158;12.254;2022-08-01T05:50:43;2.58;;;2.33;;
5787;SDS011;2920;48.158;12.254;2022-08-01T05:53:08;2.80;;;2.33;;
5787;SDS011;2920;48.158;12.254;2022-08-01T05:55:34;2.78;;;2.30;;
5787;SDS011;2920;48.158;12.254;2022-08-01T05:58:00;3.83;;;2.63;;
5787;SDS011;2920;48.158;12.254;2022-08-01T06:00:25;4.13;;;2.70;;
5787;SDS011;2920;48.158;12.254;2022-08-01T06:02:50;4.95;;;2.58;;
5787;SDS011;2920;48.158;12.254;2022-08-01T06:05:16;2.83;;;2.20;;
5787;SDS011;2920;48.158;12.254;2022-08-01T06:07:41;3.58;;;2.45;;
5787;SDS011;2920;48.158;12.254;2022-08-01T06:10:07;5.13;;;2.47;;
5787;SDS011;2920;48.158;12.254;2022-08-01T06:12:33;3.60;;;2.55;;
5787;SDS011;2920;48.158;12.254;2022-08-01T06:14:59;5.43;;;2.30;;
5787;SDS011;2920;48.158;12.254;2022-08-01T06:17:24;3.83;;;2.50;;
5787;SDS011;2920;48.158;12.254;2022-08-01T06:19:49;4.07;;;2.72;;
5787;SDS011;2920;48.158;12.254;2022-08-01T06:22:15;3.75;;;2.60;;
5787;SDS011;2920;48.158;12.254;2022-08-01T06:24:40;6.47;;;2.58;;
5787;SDS011;2920;48.158;12.254;2022-08-01T06:27:05;2.67;;;2.33;;
5787;SDS011;2920;48.158;12.254;2022-08-01T06:29:31;4.22;;;2.45;;
5787;SDS011;2920;48.158;12.254;2022-08-01T06:31:57;5.75;;;2.65;;
5787;SDS011;2920;48.158;12.254;2022-08-01T06:34:22;4.20;;;2.88;;
5787;SDS011;2920;48.158;12.254;2022-08-01T06:36:48;2.88;;;2.58;;
5787;SDS011;2920;48.158;12.254;2022-08-01T06:39:13;3.60;;;3.00;;
5787;SDS011;2920;48.158;12.254;2022-08-01T06:41:38;4.55;;;2.90;;
5787;SDS011;2920;48.158;12.254;2022-08-01T06:44:06;3.72;;;2.70;;
5787;SDS011;2920;48.158;12.254;2022-08-01T06:46:32;4.00;;;2.47;;
5787;SDS011;2920;48.158;12.254;2022-08-01T06:48:57;4.38;;;2.65;;
5787;SDS011;2920;48.158;12.254;2022-08-01T06:51:22;2.78;;;2.42;;
5787;SDS011;2920;48.158;12.254;2022-08-01T06:53:48;4.22;;;2.30;;
5787;SDS011;2920;48.158;12.254;2022-08-01T06:56:13;3.58;;;3.22;;
5787;SDS011;2920;48.158;12.254;2022-08-01T06:58:38;3.55;;;2.53;;
5787;SDS011;2920;48.158;12.254;2022-08-01T07:01:04;4.32;;;2.80;;
5787;SDS011;2920;48.158;12.254;2022-08-01T07:03:33;5.78;;;2.50;;
5787;SDS011;2920;48.158;12.254;2022-08-01T07:05:59;3.13;;;2.67;;
5787;SDS011;2920;48.158;12.254;2022-08-01T07:08:24;4.13;;;2.45;;
5787;SDS011;2920;48.158;12.254;2022-08-01T07:10:49;5.15;;;2.95;;
5787;SDS011;2920;48.158;12.254;2022-08-01T07:13:15;7.72;;;3.05;;
5787;SDS011;2920;48.158;12.254;2022-08-01T07:15:45;7.53;;;3.00;;
5787;SDS011;2920;48.158;12.254;2022-08-01T07:18:11;3.00;;;2.20;;
5787;SDS011;2920;48.158;12.254;2022-08-01T07:20:37;3.63;;;2.65;;
5787;SDS011;2920;48.158;12.254;2022-08-01T07:23:02;4.22;;;2.53;;
5787;SDS011;2920;48.158;12.254;2022-08-01T07:25:27;3.53;;;2.67;;
5787;SDS011;2920;48.158;12.254;2022-08-01T07:27:52;3.22;;;2.65;;
5787;SDS011;2920;48.158;12.254;2022-08-01T07:30:18;3.72;;;2.58;;
5787;SDS011;2920;48.158;12.254;2022-08-01T07:32:43;6.63;;;2.50;;
5787;SDS011;2920;48.158;12.254;2022-08-01T07:35:09;5.10;;;2.58;;
5787;SDS011;2920;48.158;12.254;2022-08-01T07:37:34;2.67;;;2.42;;
5787;SDS011;2920;48.158;12.254;2022-08-01T07:39:59;3.58;;;2.47;;
5787;SDS011;2920;48.158;12.254;2022-08-01T07:42:25;3.70;;;2.45;;
5787;SDS011;2920;48.158;12.254;2022-08-01T07:44:50;3.17;;;2.58;;
5787;SDS011;2920;48.158;12.254;2022-08-01T07:47:15;3.83;;;2.75;;
5787;SDS011;2920;48.158;12.254;2022-08-01T07:49:41;3.25;;;2.75;;
5787;SDS011;2920;48.158;12.254;2022-08-01T07:52:06;5.05;;;2.25;;
5787;SDS011;2920;48.158;12.254;2022-08-01T07:54:32;5.40;;;2.50;;
5787;SDS011;2920;48.158;12.254;2022-08-01T07:56:58;6.82;;;2.65;;
5787;SDS011;2920;48.158;12.254;2022-08-01T07:59:23;2.90;;;2.33;;
5787;SDS011;2920;48.158;12.254;2022-08-01T08:01:49;3.38;;;2.33;;
5787;SDS011;2920;48.158;12.254;2022-08-01T08:04:16;4.95;;;2.72;;
5787;SDS011;2920;48.158;12.254;2022-08-01T08:06:41;3.17;;;2.47;;
5787;SDS011;2920;48.158;12.254;2022-08-01T08:09:07;5.50;;;2.55;;
5787;SDS011;2920;48.158;12.254;2022-08-01T08:11:32;4.25;;;2.90;;
5787;SDS011;2920;48.158;12.254;2022-08-01T08:13:58;3.35;;;2.50;;
5787;SDS011;2920;48.158;12.254;2022-08-01T08:16:23;3.83;;;2.72;;
5787;SDS011;2920;48.158;12.254;2022-08-01T08:18:48;3.72;;;2.90;;
5787;SDS011;2920;48.158;12.254;2022-08-01T08:21:14;3.38;;;2.47;;
5787;SDS011;2920;48.158;12.254;2022-08-01T08:23:39;4.32;;;2.70;;
5787;SDS011;2920;48.158;12.254;2022-08-01T08:26:23;6.60;;;2.70;;
5787;SDS011;2920;48.158;12.254;2022-08-01T08:28:49;3.88;;;2.58;;
5787;SDS011;2920;48.158;12.254;2022-08-01T08:31:14;3.25;;;2.83;;
5787;SDS011;2920;48.158;12.254;2022-08-01T08:33:40;3.45;;;2.85;;
5787;SDS011;2920;48.158;12.254;2022-08-01T08:36:05;4.03;;;2.92;;
5787;SDS011;2920;48.158;12.254;2022-08-01T08:38:30;4.20;;;2.47;;
5787;SDS011;2920;48.158;12.254;2022-08-01T08:40:56;4.35;;;2.72;;
5787;SDS011;2920;48.158;12.254;2022-08-01T08:43:22;3.83;;;2.70;;
5787;SDS011;2920;48.158;12.254;2022-08-01T08:45:49;3.15;;;2.80;;
5787;SDS011;2920;48.158;12.254;2022-08-01T08:48:15;4.07;;;3.13;;
5787;SDS011;2920;48.158;12.254;2022-08-01T08:50:42;8.77;;;2.95;;
5787;SDS011;2920;48.158;12.254;2022-08-01T08:53:09;4.05;;;2.42;;
5787;SDS011;2920;48.158;12.254;2022-08-01T08:55:35;3.67;;;2.83;;
5787;SDS011;2920;48.158;12.254;2022-08-01T08:58:02;8.30;;;3.33;;
5787;SDS011;2920;48.158;12.254;2022-08-01T09:00:30;4.68;;;2.80;;
5787;SDS011;2920;48.158;12.254;2022-08-01T09:02:56;11.23;;;2.97;;
5787;SDS011;2920;48.158;12.254;2022-08-01T09:05:22;6.80;;;3.97;;
5787;SDS011;2920;48.158;12.254;2022-08-01T09:07:51;4.38;;;2.80;;
5787;SDS011;2920;48.158;12.254;2022-08-01T09:10:16;3.35;;;3.05;;
5787;SDS011;2920;48.158;12.254;2022-08-01T09:13:01;4.30;;;2.67;;
5787;SDS011;2920;48.158;12.254;2022-08-01T09:15:41;3.58;;;2.85;;
5787;SDS011;2920;48.158;12.254;2022-08-01T09:18:35;5.43;;;2.97;;
5787;SDS011;2920;48.158;12.254;2022-08-01T09:21:14;3.53;;;2.80;;
5787;SDS011;2920;48.158;12.254;2022-08-01T09:23:44;3.53;;;2.60;;
5787;SDS011;2920;48.158;12.254;2022-08-01T09:26:13;6.57;;;3.22;;
5787;SDS011;2920;48.158;12.254;2022-08-01T09:28:44;4.18;;;2.63;;
5787;SDS011;2920;48.158;12.254;2022-08-01T09:31:11;3.50;;;2.97;;
5787;SDS011;2920;48.158;12.254;2022-08-01T09:39:24;2.72;;;2.42;;
5787;SDS011;2920;48.158;12.254;2022-08-01T09:41:51;5.05;;;3.33;;
5787;SDS011;2920;48.158;12.254;2022-08-01T09:44:18;4.05;;;2.70;;
5787;SDS011;2920;48.158;12.254;2022-08-01T09:46:54;8.95;;;3.50;;
5787;SDS011;2920;48.158;12.254;2022-08-01T09:49:28;3.50;;;2.83;;
5787;SDS011;2920;48.158;12.254;2022-08-01T09:51:58;6.28;;;2.85;;
5787;SDS011;2920;48.158;12.254;2022-08-01T09:54:31;4.57;;;2.75;;
5787;SDS011;2920;48.158;12.254;2022-08-01T09:57:10;7.00;;;2.95;;
5787;SDS011;2920;48.158;12.254;2022-08-01T09:59:42;4.25;;;2.90;;
5787;SDS011;2920;48.158;12.254;2022-08-01T10:02:11;3.58;;;2.70;;
5787;SDS011;2920;48.158;12.254;2022-08-01T10:04:49;3.45;;;3.08;;
5787;SDS011;2920;48.158;12.254;2022-08-01T10:07:15;9.85;;;3.80;;
5787;SDS011;2920;48.158;12.254;2022-08-01T10:09:41;3.05;;;2.75;;
5787;SDS011;2920;48.158;12.254;2022-08-01T10:12:07;2.92;;;2.60;;
5787;SDS011;2920;48.158;12.254;2022-08-01T10:14:34;5.22;;;2.63;;
5787;SDS011;2920;48.158;12.254;2022-08-01T10:17:01;4.53;;;2.70;;
5787;SDS011;2920;48.158;12.254;2022-08-01T10:19:28;5.82;;;2.97;;
5787;SDS011;2920;48.158;12.254;2022-08-01T10:21:55;5.05;;;3.15;;
5787;SDS011;2920;48.158;12.254;2022-08-01T10:24:22;5.35;;;3.03;;
5787;SDS011;2920;48.158;12.254;2022-08-01T10:26:48;3.92;;;2.80;;
5787;SDS011;2920;48.158;12.254;2022-08-01T10:29:16;3.65;;;2.80;;
5787;SDS011;2920;48.158;12.254;2022-08-01T10:31:44;4.97;;;2.90;;
5787;SDS011;2920;48.158;12.254;2022-08-01T10:34:09;5.63;;;2.75;;
5787;SDS011;2920;48.158;12.254;2022-08-01T10:36:36;4.57;;;2.30;;
5787;SDS011;2920;48.158;12.254;2022-08-01T10:39:04;4.03;;;2.80;;
5787;SDS011;2920;48.158;12.254;2022-08-01T10:41:30;3.97;;;2.88;;
5787;SDS011;2920;48.158;12.254;2022-08-01T10:43:58;3.60;;;2.58;;
5787;SDS011;2920;48.158;12.254;2022-08-01T10:46:25;4.25;;;2.20;;
5787;SDS011;2920;48.158;12.254;2022-08-01T10:48:54;3.00;;;2.50;;
5787;SDS011;2920;48.158;12.254;2022-08-01T10:51:22;3.00;;;2.17;;
5787;SDS011;2920;48.158;12.254;2022-08-01T10:53:50;3.13;;;2.58;;
5787;SDS011;2920;48.158;12.254;2022-08-01T10:56:16;4.43;;;2.20;;
5787;SDS011;2920;48.158;12.254;2022-08-01T10:58:42;4.90;;;2.45;;
5787;SDS011;2920;48.158;12.254;2022-08-01T11:01:29;2.40;;;2.20;;
5787;SDS011;2920;48.158;12.254;2022-08-01T11:06:26;3.42;;;2.13;;
5787;SDS011;2920;48.158;12.254;2022-08-01T11:09:02;4.10;;;2.22;;
5787;SDS011;2920;48.158;12.254;2022-08-01T11:14:21;3.42;;;2.28;;
5787;SDS011;2920;48.158;12.254;2022-08-01T11:16:46;4.65;;;2.10;;
5787;SDS011;2920;48.158;12.254;2022-08-01T11:19:11;2.72;;;1.90;;
5787;SDS011;2920;48.158;12.254;2022-08-01T11:27:20;5.95;;;2.30;;
5787;SDS011;2920;48.158;12.254;2022-08-01T11:32:50;3.65;;;1.55;;
5787;SDS011;2920;48.158;12.254;2022-08-01T11:35:15;2.25;;;1.88;;
5787;SDS011;2920;48.158;12.254;2022-08-01T11:37:42;3.28;;;2.22;;
5787;SDS011;2920;48.158;12.254;2022-08-01T11:42:46;2.53;;;1.75;;
5787;SDS011;2920;48.158;12.254;2022-08-01T11:45:12;2.05;;;1.73;;
5787;SDS011;2920;48.158;12.254;2022-08-01T11:47:47;2.60;;;1.90;;
5787;SDS011;2920;48.158;12.254;2022-08-01T11:53:12;2.78;;;2.03;;
5787;SDS011;2920;48.158;12.254;2022-08-01T11:55:47;2.40;;;1.80;;
5787;SDS011;2920;48.158;12.254;2022-08-01T11:58:19;2.60;;;1.90;;
5787;SDS011;2920;48.158;12.254;2022-08-01T12:00:52;4.43;;;1.90;;
5787;SDS011;2920;48.158;12.254;2022-08-01T12:03:25;2.58;;;1.77;;
5787;SDS011;2920;48.158;12.254;2022-08-01T12:05:52;2.28;;;1.88;;
5787;SDS011;2920;48.158;12.254;2022-08-01T12:08:25;3.50;;;1.60;;
5787;SDS011;2920;48.158;12.254;2022-08-01T12:10:51;2.42;;;1.60;;
5787;SDS011;2920;48.158;12.254;2022-08-01T12:13:17;2.25;;;1.30;;
5787;SDS011;2920;48.158;12.254;2022-08-01T12:15:43;3.47;;;1.50;;
5787;SDS011;2920;48.158;12.254;2022-08-01T12:18:09;3.40;;;1.50;;
5787;SDS011;2920;48.158;12.254;2022-08-01T12:20:35;2.30;;;1.55;;
5787;SDS011;2920;48.158;12.254;2022-08-01T12:23:03;1.73;;;1.63;;
5787;SDS011;2920;48.158;12.254;2022-08-01T12:25:33;1.40;;;1.10;;
5787;SDS011;2920;48.158;12.254;2022-08-01T12:28:01;2.00;;;1.13;;
5787;SDS011;2920;48.158;12.254;2022-08-01T12:30:28;5.23;;;1.67;;
5787;SDS011;2920;48.158;12.254;2022-08-01T12:32:55;3.85;;;1.60;;
5787;SDS011;2920;48.158;12.254;2022-08-01T12:35:22;1.85;;;1.40;;
5787;SDS011;2920;48.158;12.254;2022-08-01T12:37:52;1.52;;;1.40;;
5787;SDS011;2920;48.158;12.254;2022-08-01T12:40:22;5.28;;;1.50;;
5787;SDS011;2920;48.158;12.254;2022-08-01T12:42:53;1.77;;;1.52;;
5787;SDS011;2920;48.158;12.254;2022-08-01T12:45:23;16.17;;;2.03;;
5787;SDS011;2920;48.158;12.254;2022-08-01T12:47:54;1.48;;;1.38;;
5787;SDS011;2920;48.158;12.254;2022-08-01T12:50:20;2.90;;;1.40;;
5787;SDS011;2920;48.158;12.254;2022-08-01T12:52:48;5.68;;;1.55;;
5787;SDS011;2920;48.158;12.254;2022-08-01T12:57:47;1.75;;;1.30;;
5787;SDS011;2920;48.158;12.254;2022-08-01T13:02:43;6.10;;;1.50;;
5787;SDS011;2920;48.158;12.254;2022-08-01T13:05:10;2.17;;;1.27;;
5787;SDS011;2920;48.158;12.254;2022-08-01T13:07:37;1.50;;;1.25;;
5787;SDS011;2920;48.158;12.254;2022-08-01T13:10:04;2.58;;;1.20;;
5787;SDS011;2920;48.158;12.254;2022-08-01T13:12:30;3.78;;;1.45;;
5787;SDS011;2920;48.158;12.254;2022-08-01T13:14:55;1.75;;;1.40;;
5787;SDS011;2920;48.158;12.254;2022-08-01T13:17:33;6.65;;;1.48;;
5787;SDS011;2920;48.158;12.254;2022-08-01T13:20:00;2.33;;;1.40;;
5787;SDS011;2920;48.158;12.254;2022-08-01T13:22:36;5.68;;;1.60;;
5787;SDS011;2920;48.158;12.254;2022-08-01T13:25:14;2.30;;;1.42;;
5787;SDS011;2920;48.158;12.254;2022-08-01T13:27:41;3.15;;;1.55;;
5787;SDS011;2920;48.158;12.254;2022-08-01T13:30:10;1.98;;;1.60;;
5787;SDS011;2920;48.158;12.254;2022-08-01T13:32:38;1.80;;;1.50;;
5787;SDS011;2920;48.158;12.254;2022-08-01T13:35:04;1.38;;;1.27;;
5787;SDS011;2920;48.158;12.254;2022-08-01T13:37:33;1.30;;;1.20;;
5787;SDS011;2920;48.158;12.254;2022-08-01T13:39:59;3.58;;;1.75;;
5787;SDS011;2920;48.158;12.254;2022-08-01T13:42:24;4.35;;;1.67;;
5787;SDS011;2920;48.158;12.254;2022-08-01T13:44:50;2.70;;;1.50;;
5787;SDS011;2920;48.158;12.254;2022-08-01T13:47:15;3.78;;;1.52;;
5787;SDS011;2920;48.158;12.254;2022-08-01T13:49:40;1.88;;;1.42;;
5787;SDS011;2920;48.158;12.254;2022-08-01T13:52:06;1.85;;;1.55;;
5787;SDS011;2920;48.158;12.254;2022-08-01T13:54:31;2.90;;;1.60;;
5787;SDS011;2920;48.158;12.254;2022-08-01T13:56:57;2.35;;;1.25;;
5787;SDS011;2920;48.158;12.254;2022-08-01T13:59:22;2.30;;;1.50;;
5787;SDS011;2920;48.158;12.254;2022-08-01T14:01:48;2.15;;;1.30;;
5787;SDS011;2920;48.158;12.254;2022-08-01T14:04:13;2.15;;;1.58;;
5787;SDS011;2920;48.158;12.254;2022-08-01T14:06:39;2.42;;;1.27;;
5787;SDS011;2920;48.158;12.254;2022-08-01T14:09:04;3.30;;;1.73;;
5787;SDS011;2920;48.158;12.254;2022-08-01T14:11:30;3.78;;;1.73;;
5787;SDS011;2920;48.158;12.254;2022-08-01T14:13:55;2.28;;;1.42;;
5787;SDS011;2920;48.158;12.254;2022-08-01T14:16:21;4.00;;;1.70;;
5787;SDS011;2920;48.158;12.254;2022-08-01T14:18:46;3.40;;;1.38;;
5787;SDS011;2920;48.158;12.254;2022-08-01T14:21:11;2.50;;;1.60;;
5787;SDS011;2920;48.158;12.254;2022-08-01T14:23:37;3.50;;;1.52;;
5787;SDS011;2920;48.158;12.254;2022-08-01T14:26:03;1.55;;;1.27;;
5787;SDS011;2920;48.158;12.254;2022-08-01T14:28:28;2.63;;;1.40;;
5787;SDS011;2920;48.158;12.254;2022-08-01T14:30:55;5.85;;;1.50;;
5787;SDS011;2920;48.158;12.254;2022-08-01T14:33:21;2.45;;;1.27;;
5787;SDS011;2920;48.158;12.254;2022-08-01T14:35:46;4.25;;;1.50;;
5787;SDS011;2920;48.158;12.254;2022-08-01T14:38:12;2.72;;;1.35;;
5787;SDS011;2920;48.158;12.254;2022-08-01T14:40:37;1.73;;;1.55;;
5787;SDS011;2920;48.158;12.254;2022-08-01T14:43:03;2.15;;;1.50;;
5787;SDS011;2920;48.158;12.254;2022-08-01T14:45:28;3.72;;;1.60;;
5787;SDS011;2920;48.158;12.254;2022-08-01T14:47:53;2.40;;;1.65;;
5787;SDS011;2920;48.158;12.254;2022-08-01T14:50:19;4.57;;;1.55;;
5787;SDS011;2920;48.158;12.254;2022-08-01T14:52:44;2.67;;;1.77;;
5787;SDS011;2920;48.158;12.254;2022-08-01T14:55:10;2.45;;;1.70;;
5787;SDS011;2920;48.158;12.254;2022-08-01T14:57:37;1.60;;;1.50;;
5787;SDS011;2920;48.158;12.254;2022-08-01T15:00:04;1.40;;;1.30;;
5787;SDS011;2920;48.158;12.254;2022-08-01T15:02:31;3.13;;;1.70;;
5787;SDS011;2920;48.158;12.254;2022-08-01T15:04:56;5.88;;;1.90;;
5787;SDS011;2920;48.158;12.254;2022-08-01T15:07:21;3.45;;;1.83;;
5787;SDS011;2920;48.158;12.254;2022-08-01T15:09:47;4.75;;;2.50;;
5787;SDS011;2920;48.158;12.254;2022-08-01T15:12:12;7.22;;;2.03;;
5787;SDS011;2920;48.158;12.254;2022-08-01T15:14:38;4.68;;;3.22;;
5787;SDS011;2920;48.158;12.254;2022-08-01T15:17:22;9.23;;;5.82;;
5787;SDS011;2920;48.158;12.254;2022-08-01T15:19:53;2.65;;;2.17;;
5787;SDS011;2920;48.158;12.254;2022-08-01T15:22:20;2.67;;;1.63;;
5787;SDS011;2920;48.158;12.254;2022-08-01T15:24:47;8.05;;;1.73;;
5787;SDS011;2920;48.158;12.254;2022-08-01T15:27:13;7.53;;;5.72;;
5787;SDS011;2920;48.158;12.254;2022-08-01T15:29:38;18.08;;;12.55;;
5787;SDS011;2920;48.158;12.254;2022-08-01T15:32:04;11.93;;;7.80;;
5787;SDS011;2920;48.158;12.254;2022-08-01T15:34:31;11.02;;;7.78;;
5787;SDS011;2920;48.158;12.254;2022-08-01T15:36:57;20.88;;;14.82;;
5787;SDS011;2920;48.158;12.254;2022-08-01T15:39:22;36.58;;;23.83;;
5787;SDS011;2920;48.158;12.254;2022-08-01T15:41:47;6.45;;;4.50;;
5787;SDS011;2920;48.158;12.254;2022-08-01T15:44:13;19.67;;;11.82;;
5787;SDS011;2920;48.158;12.254;2022-08-01T15:46:38;7.70;;;5.22;;